sensor_id;sensor_type;location;lat;lon;timestamp;pressure;altitude;pressure_sealevel;temperature;humidity
34979;BME280;21185;50.978;13.720;2024-01-27T00:03:13;99353.78;;;5.31;71.72
34979;BME280;21185;50.978;13.720;2024-01-27T00:08:15;99352.22;;;5.28;72.21
34979;BME280;21185;50.978;13.720;2024-01-27T00:13:17;99360.88;;;5.27;72.07
34979;BME280;21185;50.978;13.720;2024-01-27T00:18:19;99374.66;;;5.26;72.04
34979;BME280;21185;50.978;13.720;2024-01-27T00:23:21;99361.78;;;5.26;71.85
34979;BME280;21185;50.978;13.720;2024-01-27T00:28:23;99368.69;;;5.26;71.25
34979;BME280;21185;50.978;13.720;2024-01-27T00:33:25;99372.91;;;5.27;70.67
34979;BME280;21185;50.978;13.720;2024-01-27T00:38:30;99396.06;;;5.27;70.50
34979;BME280;21185;50.978;13.720;2024-01-27T00:43:32;99402.16;;;5.26;70.90
34979;BME280;21185;50.978;13.720;2024-01-27T00:48:34;99402.34;;;5.22;71.49
34979;BME280;21185;50.978;13.720;2024-01-27T00:53:36;99410.50;;;5.16;71.66
34979;BME280;21185;50.978;13.720;2024-01-27T00:58:40;99404.72;;;5.13;71.94
34979;BME280;21185;50.978;13.720;2024-01-27T01:03:42;99413.38;;;5.12;71.70
34979;BME280;21185;50.978;13.720;2024-01-27T01:08:44;99430.66;;;5.10;71.62
34979;BME280;21185;50.978;13.720;2024-01-27T01:13:46;99437.56;;;5.09;71.53
34979;BME280;21185;50.978;13.720;2024-01-27T01:18:48;99432.50;;;5.08;71.67
34979;BME280;21185;50.978;13.720;2024-01-27T01:23:51;99434.44;;;5.04;72.11
34979;BME280;21185;50.978;13.720;2024-01-27T01:28:53;99443.28;;;5.00;72.31
34979;BME280;21185;50.978;13.720;2024-01-27T01:33:55;99448.63;;;4.97;72.47
34979;BME280;21185;50.978;13.720;2024-01-27T01:38:57;99447.91;;;4.95;72.46
34979;BME280;21185;50.978;13.720;2024-01-27T01:44:00;99451.41;;;4.94;72.71
34979;BME280;21185;50.978;13.720;2024-01-27T01:49:02;99455.81;;;4.92;72.57
34979;BME280;21185;50.978;13.720;2024-01-27T01:54:05;99445.81;;;4.87;72.41
34979;BME280;21185;50.978;13.720;2024-01-27T01:59:07;99442.53;;;4.85;72.25
34979;BME280;21185;50.978;13.720;2024-01-27T02:04:09;99452.06;;;4.83;72.06
34979;BME280;21185;50.978;13.720;2024-01-27T02:09:19;99447.75;;;4.84;72.01
34979;BME280;21185;50.978;13.720;2024-01-27T02:14:22;99461.53;;;4.83;71.80
34979;BME280;21185;50.978;13.720;2024-01-27T02:19:27;99465.03;;;4.82;71.54
34979;BME280;21185;50.978;13.720;2024-01-27T02:24:29;99473.78;;;4.79;71.11
34979;BME280;21185;50.978;13.720;2024-01-27T02:29:37;99465.41;;;4.76;70.65
34979;BME280;21185;50.978;13.720;2024-01-27T02:34:39;99459.44;;;4.75;70.43
34979;BME280;21185;50.978;13.720;2024-01-27T02:39:41;99457.16;;;4.71;70.19
34979;BME280;21185;50.978;13.720;2024-01-27T02:44:43;99460.84;;;4.67;69.95
34979;BME280;21185;50.978;13.720;2024-01-27T02:49:45;99479.13;;;4.62;69.79
34979;BME280;21185;50.978;13.720;2024-01-27T02:54:48;99486.94;;;4.61;69.81
34979;BME280;21185;50.978;13.720;2024-01-27T02:59:49;99490.44;;;4.60;69.53
34979;BME280;21185;50.978;13.720;2024-01-27T03:04:51;99494.94;;;4.56;69.59
34979;BME280;21185;50.978;13.720;2024-01-27T03:09:53;99498.63;;;4.52;69.58
34979;BME280;21185;50.978;13.720;2024-01-27T03:14:59;99507.25;;;4.51;69.64
34979;BME280;21185;50.978;13.720;2024-01-27T03:20:01;99501.38;;;4.49;69.41
34979;BME280;21185;50.978;13.720;2024-01-27T03:25:04;99516.06;;;4.47;68.84
34979;BME280;21185;50.978;13.720;2024-01-27T03:30:06;99532.50;;;4.44;68.82
34979;BME280;21185;50.978;13.720;2024-01-27T03:35:09;99537.63;;;4.44;68.94
34979;BME280;21185;50.978;13.720;2024-01-27T03:40:12;99529.28;;;4.41;68.99
34979;BME280;21185;50.978;13.720;2024-01-27T03:45:14;99544.06;;;4.37;68.66
34979;BME280;21185;50.978;13.720;2024-01-27T03:50:16;99548.47;;;4.35;68.70
34979;BME280;21185;50.978;13.720;2024-01-27T03:55:18;99551.03;;;4.35;68.92
34979;BME280;21185;50.978;13.720;2024-01-27T04:00:20;99558.66;;;4.37;68.60
34979;BME280;21185;50.978;13.720;2024-01-27T04:05:23;99550.94;;;4.37;68.58
34979;BME280;21185;50.978;13.720;2024-01-27T04:10:25;99554.34;;;4.37;68.12
34979;BME280;21185;50.978;13.720;2024-01-27T04:15:28;99566.28;;;4.38;68.16
34979;BME280;21185;50.978;13.720;2024-01-27T04:20:31;99573.81;;;4.41;68.06
34979;BME280;21185;50.978;13.720;2024-01-27T04:25:34;99574.63;;;4.42;67.92
34979;BME280;21185;50.978;13.720;2024-01-27T04:30:36;99579.78;;;4.42;67.73
34979;BME280;21185;50.978;13.720;2024-01-27T04:35:38;99587.66;;;4.39;67.72
34979;BME280;21185;50.978;13.720;2024-01-27T04:40:40;99580.13;;;4.36;67.89
34979;BME280;21185;50.978;13.720;2024-01-27T04:45:42;99579.59;;;4.31;67.81
34979;BME280;21185;50.978;13.720;2024-01-27T04:50:44;99566.91;;;4.28;67.94
34979;BME280;21185;50.978;13.720;2024-01-27T04:55:47;99576.47;;;4.26;68.31
34979;BME280;21185;50.978;13.720;2024-01-27T05:00:49;99566.44;;;4.21;68.55
34979;BME280;21185;50.978;13.720;2024-01-27T05:05:51;99574.25;;;4.19;68.29
34979;BME280;21185;50.978;13.720;2024-01-27T05:10:54;99553.88;;;4.16;68.64
34979;BME280;21185;50.978;13.720;2024-01-27T05:15:59;99557.38;;;4.15;68.62
34979;BME280;21185;50.978;13.720;2024-01-27T05:21:01;99585.88;;;4.11;68.59
34979;BME280;21185;50.978;13.720;2024-01-27T05:26:06;99591.94;;;4.10;69.01
34979;BME280;21185;50.978;13.720;2024-01-27T05:31:09;99604.59;;;4.13;68.95
34979;BME280;21185;50.978;13.720;2024-01-27T05:36:11;99610.41;;;4.16;69.10
34979;BME280;21185;50.978;13.720;2024-01-27T05:41:13;99620.50;;;4.19;69.02
34979;BME280;21185;50.978;13.720;2024-01-27T05:46:15;99612.59;;;4.22;69.06
34979;BME280;21185;50.978;13.720;2024-01-27T05:51:17;99623.63;;;4.25;68.87
34979;BME280;21185;50.978;13.720;2024-01-27T05:56:19;99627.19;;;4.22;69.08
34979;BME280;21185;50.978;13.720;2024-01-27T06:01:24;99635.72;;;4.22;68.94
34979;BME280;21185;50.978;13.720;2024-01-27T06:06:27;99630.50;;;4.24;69.12
34979;BME280;21185;50.978;13.720;2024-01-27T06:11:29;99639.88;;;4.25;69.22
34979;BME280;21185;50.978;13.720;2024-01-27T06:16:32;99644.09;;;4.26;68.96
34979;BME280;21185;50.978;13.720;2024-01-27T06:21:34;99657.75;;;4.27;69.36
34979;BME280;21185;50.978;13.720;2024-01-27T06:26:36;99651.97;;;4.23;69.32
34979;BME280;21185;50.978;13.720;2024-01-27T06:31:39;99662.25;;;4.23;69.57
34979;BME280;21185;50.978;13.720;2024-01-27T06:36:41;99657.03;;;4.25;69.57
34979;BME280;21185;50.978;13.720;2024-01-27T06:41:43;99666.38;;;4.26;69.51
34979;BME280;21185;50.978;13.720;2024-01-27T06:46:45;99681.16;;;4.22;69.58
34979;BME280;21185;50.978;13.720;2024-01-27T06:51:51;99683.72;;;4.22;69.55
34979;BME280;21185;50.978;13.720;2024-01-27T06:56:53;99688.03;;;4.21;69.82
34979;BME280;21185;50.978;13.720;2024-01-27T07:01:56;99688.03;;;4.21;69.90
34979;BME280;21185;50.978;13.720;2024-01-27T07:06:58;99709.31;;;4.23;69.96
34979;BME280;21185;50.978;13.720;2024-01-27T07:12:00;99723.81;;;4.25;69.79
34979;BME280;21185;50.978;13.720;2024-01-27T07:17:04;99711.63;;;4.28;69.76
34979;BME280;21185;50.978;13.720;2024-01-27T07:22:07;99742.47;;;4.28;69.91
34979;BME280;21185;50.978;13.720;2024-01-27T07:27:12;99733.66;;;4.32;69.79
34979;BME280;21185;50.978;13.720;2024-01-27T07:32:14;99742.84;;;4.36;69.79
34979;BME280;21185;50.978;13.720;2024-01-27T07:37:16;99738.47;;;4.38;69.91
34979;BME280;21185;50.978;13.720;2024-01-27T07:42:18;99735.06;;;4.38;69.84
34979;BME280;21185;50.978;13.720;2024-01-27T07:47:21;99737.53;;;4.39;69.97
34979;BME280;21185;50.978;13.720;2024-01-27T07:52:23;99746.75;;;4.43;70.12
34979;BME280;21185;50.978;13.720;2024-01-27T07:57:25;99741.25;;;4.49;70.17
34979;BME280;21185;50.978;13.720;2024-01-27T08:02:27;99744.38;;;4.54;70.01
34979;BME280;21185;50.978;13.720;2024-01-27T08:07:29;99762.09;;;4.59;70.32
34979;BME280;21185;50.978;13.720;2024-01-27T08:12:33;99757.63;;;4.63;70.09
34979;BME280;21185;50.978;13.720;2024-01-27T08:17:35;99761.75;;;4.65;70.06
34979;BME280;21185;50.978;13.720;2024-01-27T08:22:38;99746.31;;;4.65;70.39
34979;BME280;21185;50.978;13.720;2024-01-27T08:27:40;99763.97;;;4.71;70.44
34979;BME280;21185;50.978;13.720;2024-01-27T08:32:42;99759.56;;;4.73;70.50
34979;BME280;21185;50.978;13.720;2024-01-27T08:37:45;99773.25;;;4.74;70.41
34979;BME280;21185;50.978;13.720;2024-01-27T08:42:48;99783.44;;;4.75;70.61
34979;BME280;21185;50.978;13.720;2024-01-27T08:47:50;99806.25;;;4.81;70.50
34979;BME280;21185;50.978;13.720;2024-01-27T08:52:52;99802.66;;;4.84;70.49
34979;BME280;21185;50.978;13.720;2024-01-27T08:57:56;99815.53;;;4.84;70.68
34979;BME280;21185;50.978;13.720;2024-01-27T09:03:01;99824.72;;;4.88;70.49
34979;BME280;21185;50.978;13.720;2024-01-27T09:08:05;99829.13;;;4.86;70.48
34979;BME280;21185;50.978;13.720;2024-01-27T09:13:09;99828.28;;;4.85;70.49
34979;BME280;21185;50.978;13.720;2024-01-27T09:18:11;99824.81;;;4.86;70.49
34979;BME280;21185;50.978;13.720;2024-01-27T09:23:14;99832.34;;;4.90;70.63
34979;BME280;21185;50.978;13.720;2024-01-27T09:28:16;99834.84;;;4.91;70.41
34979;BME280;21185;50.978;13.720;2024-01-27T09:33:22;99842.47;;;4.93;70.49
34979;BME280;21185;50.978;13.720;2024-01-27T09:38:25;99852.41;;;4.99;70.63
34979;BME280;21185;50.978;13.720;2024-01-27T09:43:28;99845.25;;;5.04;70.63
34979;BME280;21185;50.978;13.720;2024-01-27T09:48:31;99847.63;;;5.07;70.56
34979;BME280;21185;50.978;13.720;2024-01-27T09:53:36;99852.16;;;5.17;70.69
34979;BME280;21185;50.978;13.720;2024-01-27T09:58:38;99848.66;;;5.18;70.06
34979;BME280;21185;50.978;13.720;2024-01-27T10:03:41;99845.78;;;5.23;70.52
34979;BME280;21185;50.978;13.720;2024-01-27T10:08:53;99843.97;;;5.25;70.61
34979;BME280;21185;50.978;13.720;2024-01-27T10:13:57;99846.63;;;5.24;70.37
34979;BME280;21185;50.978;13.720;2024-01-27T10:19:02;99843.13;;;5.25;70.45
34979;BME280;21185;50.978;13.720;2024-01-27T10:24:06;99830.00;;;5.29;70.58
34979;BME280;21185;50.978;13.720;2024-01-27T10:29:10;99840.94;;;5.33;70.39
34979;BME280;21185;50.978;13.720;2024-01-27T10:34:12;99854.91;;;5.43;70.61
34979;BME280;21185;50.978;13.720;2024-01-27T10:39:20;99847.19;;;5.43;70.36
34979;BME280;21185;50.978;13.720;2024-01-27T10:44:23;99845.16;;;5.48;70.51
34979;BME280;21185;50.978;13.720;2024-01-27T10:49:28;99851.97;;;5.63;70.52
34979;BME280;21185;50.978;13.720;2024-01-27T10:54:35;99860.81;;;5.73;70.05
34979;BME280;21185;50.978;13.720;2024-01-27T10:59:39;99850.31;;;5.76;69.64
34979;BME280;21185;50.978;13.720;2024-01-27T11:04:44;99867.06;;;5.83;69.87
34979;BME280;21185;50.978;13.720;2024-01-27T11:09:48;99865.88;;;5.89;69.76
34979;BME280;21185;50.978;13.720;2024-01-27T11:14:53;99862.38;;;6.04;69.90
34979;BME280;21185;50.978;13.720;2024-01-27T11:19:56;99870.06;;;6.18;69.47
34979;BME280;21185;50.978;13.720;2024-01-27T11:30:46;99873.78;;;6.41;69.01
34979;BME280;21185;50.978;13.720;2024-01-27T11:36:00;99877.63;;;6.48;68.77
34979;BME280;21185;50.978;13.720;2024-01-27T11:41:03;99880.41;;;6.45;68.53
34979;BME280;21185;50.978;13.720;2024-01-27T11:46:05;99873.88;;;6.40;68.79
34979;BME280;21185;50.978;13.720;2024-01-27T11:51:11;99884.94;;;6.42;68.89
34979;BME280;21185;50.978;13.720;2024-01-27T11:56:13;99882.25;;;6.43;68.89
34979;BME280;21185;50.978;13.720;2024-01-27T12:01:15;99869.94;;;6.34;68.62
34979;BME280;21185;50.978;13.720;2024-01-27T12:06:18;99877.69;;;6.34;68.82
34979;BME280;21185;50.978;13.720;2024-01-27T12:11:22;99864.06;;;6.32;68.34
34979;BME280;21185;50.978;13.720;2024-01-27T12:16:26;99877.47;;;6.37;68.42
34979;BME280;21185;50.978;13.720;2024-01-27T12:21:28;99879.03;;;6.40;68.13
34979;BME280;21185;50.978;13.720;2024-01-27T12:26:31;99872.03;;;6.42;68.15
34979;BME280;21185;50.978;13.720;2024-01-27T12:31:33;99880.41;;;6.45;67.85
34979;BME280;21185;50.978;13.720;2024-01-27T12:36:42;99897.25;;;6.51;66.85
34979;BME280;21185;50.978;13.720;2024-01-27T12:41:45;99889.78;;;6.46;65.87
34979;BME280;21185;50.978;13.720;2024-01-27T12:46:47;99897.53;;;6.46;66.04
34979;BME280;21185;50.978;13.720;2024-01-27T12:51:50;99892.38;;;6.46;65.38
34979;BME280;21185;50.978;13.720;2024-01-27T12:56:53;99881.88;;;6.49;65.47
34979;BME280;21185;50.978;13.720;2024-01-27T13:01:56;99886.81;;;6.53;65.67
34979;BME280;21185;50.978;13.720;2024-01-27T13:06:58;99877.34;;;6.53;65.48
34979;BME280;21185;50.978;13.720;2024-01-27T13:12:00;99894.38;;;6.56;65.71
34979;BME280;21185;50.978;13.720;2024-01-27T13:17:03;99903.84;;;6.55;65.11
34979;BME280;21185;50.978;13.720;2024-01-27T13:22:05;99903.97;;;6.54;65.07
34979;BME280;21185;50.978;13.720;2024-01-27T13:27:10;99900.44;;;6.55;64.70
34979;BME280;21185;50.978;13.720;2024-01-27T13:32:14;99905.63;;;6.55;64.53
34979;BME280;21185;50.978;13.720;2024-01-27T13:37:17;99905.63;;;6.55;64.75
34979;BME280;21185;50.978;13.720;2024-01-27T13:42:19;99912.22;;;6.59;65.27
34979;BME280;21185;50.978;13.720;2024-01-27T13:47:22;99909.66;;;6.59;65.08
34979;BME280;21185;50.978;13.720;2024-01-27T13:52:24;99914.72;;;6.60;65.15
34979;BME280;21185;50.978;13.720;2024-01-27T13:57:26;99929.47;;;6.58;64.72
34979;BME280;21185;50.978;13.720;2024-01-27T14:02:29;99902.31;;;6.53;64.50
34979;BME280;21185;50.978;13.720;2024-01-27T14:07:33;99908.38;;;6.52;64.42
34979;BME280;21185;50.978;13.720;2024-01-27T14:12:37;99909.31;;;6.50;64.70
34979;BME280;21185;50.978;13.720;2024-01-27T14:17:40;99921.28;;;6.52;64.78
34979;BME280;21185;50.978;13.720;2024-01-27T14:22:42;99914.66;;;6.47;64.47
34979;BME280;21185;50.978;13.720;2024-01-27T14:27:45;99910.41;;;6.46;64.55
34979;BME280;21185;50.978;13.720;2024-01-27T14:32:48;99910.63;;;6.43;64.33
34979;BME280;21185;50.978;13.720;2024-01-27T14:37:52;99904.00;;;6.39;64.34
34979;BME280;21185;50.978;13.720;2024-01-27T14:42:55;99913.56;;;6.37;64.49
34979;BME280;21185;50.978;13.720;2024-01-27T14:47:58;99923.34;;;6.32;64.60
34979;BME280;21185;50.978;13.720;2024-01-27T14:53:04;99933.84;;;6.29;64.71
34979;BME280;21185;50.978;13.720;2024-01-27T14:58:08;99934.97;;;6.25;64.63
34979;BME280;21185;50.978;13.720;2024-01-27T15:03:10;99942.78;;;6.24;65.03
34979;BME280;21185;50.978;13.720;2024-01-27T15:08:16;99937.91;;;6.19;65.12
34979;BME280;21185;50.978;13.720;2024-01-27T15:13:19;99943.25;;;6.16;65.11
34979;BME280;21185;50.978;13.720;2024-01-27T15:18:26;99946.94;;;6.12;65.27
34979;BME280;21185;50.978;13.720;2024-01-27T15:23:28;99959.19;;;6.08;65.20
34979;BME280;21185;50.978;13.720;2024-01-27T15:28:31;99975.84;;;6.03;65.47
34979;BME280;21185;50.978;13.720;2024-01-27T15:33:33;99980.25;;;6.01;65.48
34979;BME280;21185;50.978;13.720;2024-01-27T15:38:37;99992.59;;;5.96;65.62
34979;BME280;21185;50.978;13.720;2024-01-27T15:43:39;99993.69;;;5.92;66.02
34979;BME280;21185;50.978;13.720;2024-01-27T15:48:42;100016.19;;;5.88;66.08
34979;BME280;21185;50.978;13.720;2024-01-27T15:53:45;100016.47;;;5.83;66.15
34979;BME280;21185;50.978;13.720;2024-01-27T15:58:47;100021.78;;;5.80;66.31
34979;BME280;21185;50.978;13.720;2024-01-27T16:03:49;100022.97;;;5.75;66.49
34979;BME280;21185;50.978;13.720;2024-01-27T16:08:53;100035.22;;;5.71;66.42
34979;BME280;21185;50.978;13.720;2024-01-27T16:13:55;100043.13;;;5.68;66.51
34979;BME280;21185;50.978;13.720;2024-01-27T16:18:57;100036.47;;;5.64;66.68
34979;BME280;21185;50.978;13.720;2024-01-27T16:24:00;100034.16;;;5.60;66.75
34979;BME280;21185;50.978;13.720;2024-01-27T16:29:02;100041.97;;;5.58;66.78
34979;BME280;21185;50.978;13.720;2024-01-27T16:34:05;100044.81;;;5.53;67.03
34979;BME280;21185;50.978;13.720;2024-01-27T16:39:07;100042.50;;;5.49;67.18
34979;BME280;21185;50.978;13.720;2024-01-27T16:44:12;100059.88;;;5.45;67.22
34979;BME280;21185;50.978;13.720;2024-01-27T16:49:14;100053.97;;;5.43;67.43
34979;BME280;21185;50.978;13.720;2024-01-27T16:54:18;100060.94;;;5.41;67.69
34979;BME280;21185;50.978;13.720;2024-01-27T16:59:20;100062.03;;;5.37;67.68
34979;BME280;21185;50.978;13.720;2024-01-27T17:04:22;100056.22;;;5.34;67.60
34979;BME280;21185;50.978;13.720;2024-01-27T17:09:32;100065.78;;;5.32;67.92
34979;BME280;21185;50.978;13.720;2024-01-27T17:14:34;100077.91;;;5.30;67.88
34979;BME280;21185;50.978;13.720;2024-01-27T17:19:36;100073.75;;;5.27;68.06
34979;BME280;21185;50.978;13.720;2024-01-27T17:24:38;100079.06;;;5.24;68.01
34979;BME280;21185;50.978;13.720;2024-01-27T17:29:41;100086.06;;;5.22;68.14
34979;BME280;21185;50.978;13.720;2024-01-27T17:34:43;100083.69;;;5.19;68.18
34979;BME280;21185;50.978;13.720;2024-01-27T17:39:45;100092.41;;;5.16;68.13
34979;BME280;21185;50.978;13.720;2024-01-27T17:44:47;100095.06;;;5.15;68.40
34979;BME280;21185;50.978;13.720;2024-01-27T17:49:49;100097.72;;;5.13;68.55
34979;BME280;21185;50.978;13.720;2024-01-27T17:54:53;100095.22;;;5.12;68.69
34979;BME280;21185;50.978;13.720;2024-01-27T17:59:55;100099.53;;;5.11;68.69
34979;BME280;21185;50.978;13.720;2024-01-27T18:04:57;100102.19;;;5.10;68.75
34979;BME280;21185;50.978;13.720;2024-01-27T18:10:00;100107.44;;;5.08;68.98
34979;BME280;21185;50.978;13.720;2024-01-27T18:15:02;100110.16;;;5.05;68.83
34979;BME280;21185;50.978;13.720;2024-01-27T18:20:06;100108.50;;;5.04;68.84
34979;BME280;21185;50.978;13.720;2024-01-27T18:25:09;100115.47;;;5.02;68.97
34979;BME280;21185;50.978;13.720;2024-01-27T18:30:11;100114.72;;;5.00;69.07
34979;BME280;21185;50.978;13.720;2024-01-27T18:35:15;100119.13;;;4.98;68.93
34979;BME280;21185;50.978;13.720;2024-01-27T18:40:17;100119.28;;;4.95;68.83
34979;BME280;21185;50.978;13.720;2024-01-27T18:45:19;100130.56;;;4.93;68.92
34979;BME280;21185;50.978;13.720;2024-01-27T18:50:21;100128.06;;;4.91;68.90
34979;BME280;21185;50.978;13.720;2024-01-27T18:55:23;100144.59;;;4.87;68.95
34979;BME280;21185;50.978;13.720;2024-01-27T19:00:29;100135.38;;;4.83;68.86
34979;BME280;21185;50.978;13.720;2024-01-27T19:05:36;100125.22;;;4.80;68.95
34979;BME280;21185;50.978;13.720;2024-01-27T19:10:39;100133.88;;;4.79;68.96
34979;BME280;21185;50.978;13.720;2024-01-27T19:15:44;100137.34;;;4.78;68.86
34979;BME280;21185;50.978;13.720;2024-01-27T19:20:46;100136.59;;;4.76;69.00
34979;BME280;21185;50.978;13.720;2024-01-27T19:25:48;100140.16;;;4.73;69.29
34979;BME280;21185;50.978;13.720;2024-01-27T19:30:50;100134.34;;;4.70;69.17
34979;BME280;21185;50.978;13.720;2024-01-27T19:35:53;100139.56;;;4.68;68.96
34979;BME280;21185;50.978;13.720;2024-01-27T19:40:55;100161.88;;;4.68;69.23
34979;BME280;21185;50.978;13.720;2024-01-27T19:46:16;100176.41;;;4.69;69.15
34979;BME280;21185;50.978;13.720;2024-01-27T19:51:18;100188.41;;;4.68;69.03
34979;BME280;21185;50.978;13.720;2024-01-27T19:56:21;100191.00;;;4.68;68.94
34979;BME280;21185;50.978;13.720;2024-01-27T20:01:23;100181.69;;;4.66;69.06
34979;BME280;21185;50.978;13.720;2024-01-27T20:06:25;100181.78;;;4.64;69.18
34979;BME280;21185;50.978;13.720;2024-01-27T20:11:27;100190.41;;;4.63;69.09
34979;BME280;21185;50.978;13.720;2024-01-27T20:16:29;100192.22;;;4.61;69.04
34979;BME280;21185;50.978;13.720;2024-01-27T20:21:31;100190.63;;;4.59;68.97
34979;BME280;21185;50.978;13.720;2024-01-27T20:26:33;100183.97;;;4.54;68.68
34979;BME280;21185;50.978;13.720;2024-01-27T20:31:35;100180.72;;;4.51;68.85
34979;BME280;21185;50.978;13.720;2024-01-27T20:36:37;100186.94;;;4.47;68.89
34979;BME280;21185;50.978;13.720;2024-01-27T20:41:39;100194.88;;;4.42;68.77
34979;BME280;21185;50.978;13.720;2024-01-27T20:46:41;100201.22;;;4.35;68.73
34979;BME280;21185;50.978;13.720;2024-01-27T20:51:44;100210.97;;;4.29;69.05
34979;BME280;21185;50.978;13.720;2024-01-27T20:56:50;100211.97;;;4.26;68.98
34979;BME280;21185;50.978;13.720;2024-01-27T21:01:52;100212.94;;;4.23;69.15
34979;BME280;21185;50.978;13.720;2024-01-27T21:06:54;100219.91;;;4.21;69.19
34979;BME280;21185;50.978;13.720;2024-01-27T21:11:57;100209.69;;;4.20;68.88
34979;BME280;21185;50.978;13.720;2024-01-27T21:16:59;100214.97;;;4.17;69.03
34979;BME280;21185;50.978;13.720;2024-01-27T21:22:01;100210.91;;;4.13;69.21
34979;BME280;21185;50.978;13.720;2024-01-27T21:27:05;100209.38;;;4.09;69.13
34979;BME280;21185;50.978;13.720;2024-01-27T21:32:07;100211.25;;;4.05;69.05
34979;BME280;21185;50.978;13.720;2024-01-27T21:37:09;100216.63;;;4.01;69.21
34979;BME280;21185;50.978;13.720;2024-01-27T21:42:11;100209.81;;;4.00;69.26
34979;BME280;21185;50.978;13.720;2024-01-27T21:47:14;100212.53;;;3.97;69.25
34979;BME280;21185;50.978;13.720;2024-01-27T21:52:17;100199.75;;;3.95;69.30
34979;BME280;21185;50.978;13.720;2024-01-27T21:57:19;100207.63;;;3.92;69.30
34979;BME280;21185;50.978;13.720;2024-01-27T22:02:21;100217.06;;;3.92;69.28
34979;BME280;21185;50.978;13.720;2024-01-27T22:07:23;100213.72;;;3.89;69.25
34979;BME280;21185;50.978;13.720;2024-01-27T22:12:25;100225.81;;;3.87;69.33
34979;BME280;21185;50.978;13.720;2024-01-27T22:17:27;100223.38;;;3.84;69.34
34979;BME280;21185;50.978;13.720;2024-01-27T22:22:29;100230.25;;;3.84;69.15
34979;BME280;21185;50.978;13.720;2024-01-27T22:27:31;100224.44;;;3.80;69.29
34979;BME280;21185;50.978;13.720;2024-01-27T22:32:34;100216.88;;;3.77;69.29
34979;BME280;21185;50.978;13.720;2024-01-27T22:37:37;100224.66;;;3.76;69.46
34979;BME280;21185;50.978;13.720;2024-01-27T22:42:39;100220.41;;;3.75;69.38
34979;BME280;21185;50.978;13.720;2024-01-27T22:47:42;100216.25;;;3.72;69.69
34979;BME280;21185;50.978;13.720;2024-01-27T22:52:44;100209.47;;;3.71;69.88
34979;BME280;21185;50.978;13.720;2024-01-27T22:57:46;100207.78;;;3.70;69.84
34979;BME280;21185;50.978;13.720;2024-01-27T23:02:48;100208.69;;;3.69;69.86
34979;BME280;21185;50.978;13.720;2024-01-27T23:07:50;100203.72;;;3.66;69.86
34979;BME280;21185;50.978;13.720;2024-01-27T23:12:52;100204.63;;;3.65;69.90
34979;BME280;21185;50.978;13.720;2024-01-27T23:17:55;100195.25;;;3.64;70.12
34979;BME280;21185;50.978;13.720;2024-01-27T23:22:57;100186.72;;;3.64;70.16
34979;BME280;21185;50.978;13.720;2024-01-27T23:28:00;100176.50;;;3.62;69.89
34979;BME280;21185;50.978;13.720;2024-01-27T23:33:04;100187.75;;;3.60;69.83
34979;BME280;21185;50.978;13.720;2024-01-27T23:38:07;100185.41;;;3.55;69.91
34979;BME280;21185;50.978;13.720;2024-01-27T23:43:09;100184.66;;;3.53;69.81
34979;BME280;21185;50.978;13.720;2024-01-27T23:48:11;100177.84;;;3.52;69.82
34979;BME280;21185;50.978;13.720;2024-01-27T23:53:15;100172.84;;;3.49;69.76
34979;BME280;21185;50.978;13.720;2024-01-27T23:58:23;100180.50;;;3.50;69.85
